Quasqueton, Iowa
Current Conditions -  °F | °C
As of 2:15 PM on Monday 24 Nov 2014 (Local Time) from KIIB Reporting Station
Haze Haze  
Wind Chill:   Ceiling: 1700
Heat Index: 21°   Visibility: 5mi
Dew Point: 19°   Wind: 25mph
Humidity: 93%   Direction: 280°W
Pressure: 29.57"   Gusts: 32mph
Location:  42.39°N, 91.76°W
Report Text: KIIB 242015Z AUTO 28022G28KT 5SM BR OVC017 M06/M07 A2957 RMK AO2
Loading
Personal Weather Stations






























Interactive Weather Map New forecast layout! Learn more

10-Day Weather Forecast

Advertisements
Track Severe Weather on mobile